Time;durP1;ratioP1;P1;durP2;ratioP2;P2;SDS_P1;SDS_P2;PMS_P1;PMS_P2;Temp;Humidity;BMP_temperature;BMP_pressure;BME280_temperature;BME280_humidity;BME280_pressure;Samples;Min_cycle;Max_cycle;Signal;HPM_P1;HPM_P2
2021/08/04 00:03:17;;;;;;;2.65;1.50;;;17.50;86.70;;;;;;10009831;28;20030;-63
2021/08/04 00:08:08;;;;;;;1.77;0.90;;;17.40;86.80;;;;;;10003829;28;20029;-64
2021/08/04 00:12:58;;;;;;;2.50;1.02;;;17.50;86.80;;;;;;10000449;28;20041;-62
2021/08/04 00:17:50;;;;;;;2.90;1.40;;;17.40;86.80;;;;;;10002345;28;20053;-62
2021/08/04 00:22:41;;;;;;;2.65;1.08;;;17.30;87.00;;;;;;10000102;28;20049;-62
2021/08/04 00:27:32;;;;;;;1.83;1.02;;;17.10;87.60;;;;;;10005227;28;20038;-62
2021/08/04 00:32:23;;;;;;;2.65;1.27;;;17.10;87.60;;;;;;10000049;28;20664;-63
2021/08/04 00:37:14;;;;;;;3.60;1.00;;;17.00;87.80;;;;;;10014915;28;20033;-63
2021/08/04 00:42:06;;;;;;;2.28;1.20;;;16.80;88.10;;;;;;10004778;28;20034;-62
2021/08/04 00:46:56;;;;;;;1.55;1.05;;;16.70;88.30;;;;;;9995249;28;20152;-62
2021/08/04 00:51:47;;;;;;;2.58;2.38;;;16.70;88.50;;;;;;9997854;28;20543;-62
2021/08/04 00:56:38;;;;;;;1.73;1.33;;;16.80;88.20;;;;;;10002160;28;20027;-62
2021/08/04 01:01:39;;;;;;;2.53;1.30;;;16.90;88.40;;;;;;9995498;28;20058;-62
2021/08/04 01:06:38;;;;;;;2.60;1.15;;;17.00;87.70;;;;;;9997554;28;20049;-61
2021/08/04 01:11:35;;;;;;;2.75;1.13;;;17.00;87.50;;;;;;9995361;28;20030;-61
2021/08/04 01:16:29;;;;;;;1.85;1.00;;;17.10;87.40;;;;;;9999835;28;20022;-63
2021/08/04 01:21:28;;;;;;;1.83;1.67;;;17.10;87.40;;;;;;9997991;28;20034;-62
2021/08/04 01:26:39;;;;;;;2.40;1.35;;;17.10;87.60;;;;;;10001801;28;20283;-62
2021/08/04 01:31:31;;;;;;;2.10;1.50;;;17.20;87.60;;;;;;9997020;28;20038;-63
2021/08/04 01:36:22;;;;;;;2.75;1.38;;;17.20;87.60;;;;;;9997226;28;20026;-62
2021/08/04 01:41:15;;;;;;;2.20;1.20;;;17.20;87.60;;;;;;9998889;28;20096;-62
2021/08/04 01:46:08;;;;;;;3.42;1.50;;;17.20;87.50;;;;;;9999614;28;20665;-62
2021/08/04 01:51:02;;;;;;;1.67;1.10;;;17.20;87.60;;;;;;9999808;28;20037;-63
2021/08/04 01:55:53;;;;;;;2.70;1.25;;;17.20;87.70;;;;;;9996019;28;20022;-63
2021/08/04 02:00:43;;;;;;;2.00;1.10;;;17.20;87.70;;;;;;9996845;28;20416;-63
2021/08/04 02:05:34;;;;;;;2.65;1.38;;;17.10;87.80;;;;;;9990874;28;20510;-62
2021/08/04 02:11:00;;;;;;;2.97;1.13;;;17.10;88.20;;;;;;9993320;28;20037;-63
2021/08/04 02:15:56;;;;;;;2.08;1.15;;;17.20;88.10;;;;;;9995292;28;20132;-62
2021/08/04 02:20:49;;;;;;;1.52;1.27;;;17.10;88.00;;;;;;9999615;28;20113;-63
2021/08/04 02:25:43;;;;;;;8.70;3.20;;;17.10;88.00;;;;;;9992121;28;20519;-63
2021/08/04 02:30:36;;;;;;;5.28;2.97;;;17.20;88.20;;;;;;9987950;28;20492;-62
2021/08/04 02:35:27;;;;;;;2.38;1.40;;;17.30;88.10;;;;;;10005852;28;20042;-63
2021/08/04 02:40:18;;;;;;;2.03;1.25;;;17.20;88.10;;;;;;9991645;28;20063;-63
2021/08/04 02:45:09;;;;;;;2.88;1.23;;;17.10;88.30;;;;;;9992067;28;20037;-63
2021/08/04 02:50:06;;;;;;;2.55;1.20;;;17.00;88.20;;;;;;9992922;28;20030;-63
2021/08/04 02:54:57;;;;;;;1.50;0.80;;;17.00;88.30;;;;;;9997991;28;20037;-63
2021/08/04 02:59:48;;;;;;;1.98;1.20;;;16.90;88.20;;;;;;9993817;28;20026;-61
2021/08/04 03:04:38;;;;;;;1.70;0.90;;;16.80;88.20;;;;;;10003011;28;20397;-62
2021/08/04 03:09:29;;;;;;;2.28;1.42;;;16.80;88.40;;;;;;9997862;28;20388;-63
2021/08/04 03:14:19;;;;;;;3.10;1.30;;;16.80;88.40;;;;;;9994942;28;20551;-62
2021/08/04 03:19:10;;;;;;;2.00;1.13;;;16.80;88.40;;;;;;10000469;28;20014;-62
2021/08/04 03:24:01;;;;;;;3.88;1.35;;;16.80;88.30;;;;;;9994546;28;20134;-62
2021/08/04 03:28:52;;;;;;;2.13;1.20;;;16.80;88.20;;;;;;10005763;28;20022;-61
2021/08/04 03:33:42;;;;;;;1.92;1.05;;;16.80;88.00;;;;;;10000608;28;20503;-61
2021/08/04 03:38:33;;;;;;;2.45;1.20;;;16.80;88.10;;;;;;10000484;28;20396;-62
2021/08/04 03:43:23;;;;;;;1.83;1.27;;;16.80;88.20;;;;;;9999171;28;20088;-62
2021/08/04 03:48:14;;;;;;;5.50;1.17;;;16.80;88.30;;;;;;10001510;28;20022;-61
2021/08/04 03:53:05;;;;;;;2.88;1.17;;;16.70;88.20;;;;;;10007065;28;20045;-64
2021/08/04 03:57:55;;;;;;;2.63;1.00;;;16.80;88.20;;;;;;9999896;28;20199;-60
2021/08/04 04:02:46;;;;;;;1.40;1.10;;;16.80;88.10;;;;;;9996435;28;20739;-62
2021/08/04 04:07:37;;;;;;;2.35;1.17;;;16.80;88.10;;;;;;10000624;28;20504;-62
2021/08/04 04:12:29;;;;;;;2.38;1.00;;;16.90;87.90;;;;;;10003546;28;20022;-63
2021/08/04 04:17:20;;;;;;;2.47;1.40;;;16.90;87.80;;;;;;10000279;28;20041;-63
2021/08/04 04:22:10;;;;;;;4.40;1.67;;;16.90;87.60;;;;;;9999381;28;20038;-63
2021/08/04 04:27:01;;;;;;;3.28;1.15;;;16.90;87.90;;;;;;9994640;28;20045;-63
2021/08/04 04:31:51;;;;;;;2.65;1.48;;;16.80;87.70;;;;;;9995843;28;20157;-62
2021/08/04 04:36:42;;;;;;;2.95;1.58;;;16.80;87.80;;;;;;9999956;28;20029;-61
2021/08/04 04:41:33;;;;;;;2.05;1.35;;;16.90;87.80;;;;;;10001583;28;20018;-62
2021/08/04 04:46:24;;;;;;;1.73;1.20;;;16.80;87.70;;;;;;9999201;28;20061;-62
2021/08/04 04:51:14;;;;;;;2.08;1.35;;;16.80;87.80;;;;;;9994801;28;20061;-62
2021/08/04 04:56:05;;;;;;;2.38;1.33;;;16.90;87.80;;;;;;9997848;28;20053;-62
2021/08/04 05:00:56;;;;;;;2.03;1.55;;;17.00;87.60;;;;;;9993812;28;20670;-61
2021/08/04 05:05:47;;;;;;;3.22;1.33;;;16.90;87.30;;;;;;10004162;28;20030;-61
2021/08/04 05:10:37;;;;;;;4.30;1.40;;;16.90;87.70;;;;;;9998263;28;20030;-62
2021/08/04 05:15:28;;;;;;;4.45;1.88;;;17.00;87.50;;;;;;10000516;28;20061;-61
2021/08/04 05:20:21;;;;;;;3.47;1.52;;;17.20;87.30;;;;;;9995518;28;20520;-60
2021/08/04 05:25:12;;;;;;;5.55;1.95;;;17.20;87.20;;;;;;9996115;28;20092;-61
2021/08/04 05:30:03;;;;;;;5.05;1.70;;;17.10;87.20;;;;;;9995991;28;20061;-62
2021/08/04 05:34:53;;;;;;;3.20;1.60;;;17.20;87.80;;;;;;9995983;28;20021;-62
2021/08/04 05:39:44;;;;;;;3.42;1.45;;;17.30;87.00;;;;;;9990744;28;20021;-62
2021/08/04 05:44:35;;;;;;;1.85;1.25;;;17.30;86.90;;;;;;9991246;28;20685;-62
2021/08/04 05:49:25;;;;;;;2.60;1.52;;;17.40;86.80;;;;;;10002041;28;20033;-62
2021/08/04 05:54:16;;;;;;;1.77;1.33;;;17.50;86.70;;;;;;9999149;28;20037;-62
2021/08/04 05:59:06;;;;;;;2.58;1.13;;;17.50;86.50;;;;;;9988889;28;20038;-63
2021/08/04 06:03:57;;;;;;;2.03;1.65;;;17.40;86.50;;;;;;9992664;28;20033;-61
2021/08/04 06:08:48;;;;;;;3.05;1.63;;;17.50;86.80;;;;;;9996877;28;20542;-62
2021/08/04 06:13:38;;;;;;;2.00;1.15;;;17.60;86.10;;;;;;9999583;28;20069;-62
2021/08/04 06:18:29;;;;;;;3.05;1.30;;;17.60;86.00;;;;;;9991242;28;20018;-62
2021/08/04 06:23:19;;;;;;;2.70;1.70;;;17.70;86.40;;;;;;9996794;28;20561;-62
2021/08/04 06:28:10;;;;;;;2.05;1.52;;;18.00;85.70;;;;;;9998917;28;20038;-62
2021/08/04 06:33:01;;;;;;;3.67;2.00;;;18.00;85.70;;;;;;10000303;28;20104;-62
2021/08/04 06:37:52;;;;;;;2.08;1.60;;;18.10;85.20;;;;;;9992049;28;20121;-57
2021/08/04 06:42:43;;;;;;;4.10;1.65;;;18.10;85.40;;;;;;9998874;28;20413;-59
2021/08/04 06:47:34;;;;;;;2.80;1.90;;;18.10;85.20;;;;;;9991942;28;20034;-60
2021/08/04 06:52:24;;;;;;;1.73;1.30;;;18.40;84.70;;;;;;10005187;28;20045;-59
2021/08/04 06:57:15;;;;;;;3.80;1.73;;;18.40;84.50;;;;;;10002507;28;20050;-60
2021/08/04 07:02:06;;;;;;;4.72;1.40;;;18.40;84.40;;;;;;10003635;28;20037;-60
2021/08/04 07:07:01;;;;;;;2.53;1.27;;;18.50;84.30;;;;;;10009340;28;20034;-59
2021/08/04 07:11:52;;;;;;;1.60;1.13;;;18.60;83.80;;;;;;10006556;28;20045;-59
2021/08/04 07:16:44;;;;;;;2.92;1.20;;;18.70;83.80;;;;;;10023537;28;20110;-59
2021/08/04 07:21:34;;;;;;;2.22;1.40;;;18.90;83.10;;;;;;10001243;28;20025;-58
2021/08/04 07:26:25;;;;;;;3.40;1.40;;;19.10;82.70;;;;;;9999215;28;20062;-61
2021/08/04 07:31:16;;;;;;;2.47;1.42;;;18.90;82.70;;;;;;10004767;28;20532;-59
2021/08/04 07:36:06;;;;;;;3.15;1.60;;;19.10;82.60;;;;;;10006028;28;20107;-60
2021/08/04 07:40:59;;;;;;;1.92;1.13;;;19.30;82.00;;;;;;10008582;28;20183;-60
2021/08/04 07:45:49;;;;;;;1.90;1.33;;;19.20;81.80;;;;;;10000319;28;20042;-60
2021/08/04 07:50:40;;;;;;;2.53;1.40;;;19.20;81.70;;;;;;10001709;28;20030;-60
2021/08/04 07:55:30;;;;;;;2.28;1.50;;;19.50;80.90;;;;;;10003964;28;20385;-63
2021/08/04 08:00:21;;;;;;;1.60;1.20;;;19.60;80.30;;;;;;9999389;28;20018;-62
2021/08/04 08:05:12;;;;;;;3.30;1.63;;;19.60;80.40;;;;;;10000083;28;20048;-59
2021/08/04 08:10:03;;;;;;;6.00;1.48;;;19.60;80.20;;;;;;9998236;28;20026;-59
2021/08/04 08:14:54;;;;;;;2.90;1.58;;;19.70;79.70;;;;;;10002835;28;20521;-62
2021/08/04 08:19:44;;;;;;;3.08;1.50;;;20.10;78.90;;;;;;10006955;28;20053;-59
2021/08/04 08:24:35;;;;;;;3.00;1.40;;;20.20;78.60;;;;;;10003458;28;20050;-59
2021/08/04 08:29:26;;;;;;;3.45;1.58;;;20.20;78.50;;;;;;10004282;28;20031;-62
2021/08/04 08:34:16;;;;;;;2.72;1.50;;;20.20;78.10;;;;;;10002775;28;20025;-61
2021/08/04 08:39:09;;;;;;;2.63;1.20;;;20.30;77.80;;;;;;10002157;28;20046;-61
2021/08/04 08:44:00;;;;;;;2.25;1.48;;;20.40;77.60;;;;;;10016347;28;20022;-59
2021/08/04 08:48:51;;;;;;;3.00;1.60;;;20.50;76.80;;;;;;10004506;28;20518;-60
2021/08/04 08:53:42;;;;;;;2.42;1.58;;;20.50;76.80;;;;;;9996086;28;20095;-61
2021/08/04 08:58:32;;;;;;;2.25;1.30;;;20.50;76.20;;;;;;9999012;28;20022;-61
2021/08/04 09:03:23;;;;;;;3.05;1.50;;;20.50;76.20;;;;;;9988130;28;20129;-59
2021/08/04 09:08:40;;;;;;;2.55;1.60;;;20.20;76.30;;;;;;10002121;28;20058;-61
2021/08/04 09:13:33;;;;;;;3.20;1.33;;;20.20;76.00;;;;;;10002815;28;20049;-61
2021/08/04 09:18:23;;;;;;;3.80;1.40;;;20.20;76.20;;;;;;10004169;28;20034;-60
2021/08/04 09:23:16;;;;;;;3.55;1.85;;;20.30;75.60;;;;;;10001037;28;20501;-62
2021/08/04 09:28:08;;;;;;;3.78;1.20;;;20.30;75.30;;;;;;10003171;28;20041;-60
2021/08/04 09:33:14;;;;;;;2.35;1.77;;;20.40;75.30;;;;;;9999784;28;20073;-61
2021/08/04 09:38:06;;;;;;;3.80;1.52;;;20.40;74.10;;;;;;10004173;28;20542;-60
2021/08/04 09:42:57;;;;;;;1.83;1.25;;;20.60;73.70;;;;;;10001642;28;20034;-61
2021/08/04 09:47:57;;;;;;;2.47;1.75;;;20.80;72.80;;;;;;10002724;28;20101;-63
2021/08/04 09:52:55;;;;;;;1.90;1.40;;;21.20;72.00;;;;;;9999553;28;20506;-60
2021/08/04 09:57:47;;;;;;;3.13;1.55;;;21.20;72.10;;;;;;9998566;28;20040;-60
2021/08/04 10:02:38;;;;;;;1.98;1.50;;;21.10;72.40;;;;;;10004362;28;20029;-60
2021/08/04 10:07:29;;;;;;;2.67;1.73;;;21.40;71.90;;;;;;9997844;28;20038;-60
2021/08/04 10:12:19;;;;;;;2.42;1.52;;;21.40;71.60;;;;;;9998757;28;20030;-62
2021/08/04 10:17:10;;;;;;;2.45;1.45;;;21.50;71.60;;;;;;10001572;28;20065;-60
2021/08/04 10:22:01;;;;;;;3.83;1.48;;;21.70;70.80;;;;;;9999078;28;20451;-59
2021/08/04 10:26:53;;;;;;;3.35;1.92;;;21.60;70.80;;;;;;9999457;28;20133;-60
2021/08/04 10:31:46;;;;;;;2.97;1.55;;;21.60;71.00;;;;;;9996012;28;20041;-61
2021/08/04 10:36:39;;;;;;;3.47;1.70;;;21.80;70.90;;;;;;9997252;28;20026;-61
2021/08/04 10:41:30;;;;;;;4.82;1.45;;;22.10;70.20;;;;;;9997267;28;20030;-58
2021/08/04 10:46:29;;;;;;;1.63;1.33;;;22.30;69.10;;;;;;10002059;28;20527;-57
2021/08/04 10:51:21;;;;;;;3.20;1.80;;;22.30;68.30;;;;;;9995566;28;20408;-59
2021/08/04 10:56:11;;;;;;;1.65;1.50;;;22.20;68.20;;;;;;10000073;28;20129;-60
2021/08/04 11:01:23;;;;;;;2.40;1.70;;;22.20;68.00;;;;;;9998841;28;20619;-62
2021/08/04 11:06:14;;;;;;;2.65;1.58;;;22.40;66.90;;;;;;9997794;28;20104;-59
2021/08/04 11:11:05;;;;;;;2.60;1.40;;;22.50;66.80;;;;;;10001266;28;20107;-59
2021/08/04 11:16:34;;;;;;;1.67;1.17;;;22.80;66.00;;;;;;9998686;28;20383;-59
2021/08/04 11:21:25;;;;;;;1.67;1.10;;;22.90;64.80;;;;;;10002997;28;20476;-59
2021/08/04 11:26:30;;;;;;;1.83;1.35;;;23.10;65.00;;;;;;9995521;28;20050;-59
2021/08/04 11:31:21;;;;;;;2.15;1.40;;;23.60;63.70;;;;;;9996397;28;20133;-58
2021/08/04 11:36:19;;;;;;;1.88;1.02;;;23.80;63.50;;;;;;10001486;28;20041;-58
2021/08/04 11:41:18;;;;;;;2.28;1.45;;;23.40;63.30;;;;;;10007142;28;20033;-60
2021/08/04 11:46:09;;;;;;;2.97;0.90;;;23.20;63.90;;;;;;10006801;28;20755;-60
2021/08/04 11:50:59;;;;;;;1.55;1.20;;;23.40;63.20;;;;;;10003299;28;20037;-60
2021/08/04 11:55:50;;;;;;;1.85;1.30;;;23.50;62.10;;;;;;10002180;28;20034;-59
2021/08/04 12:00:41;;;;;;;2.50;1.50;;;23.60;61.60;;;;;;10003937;28;20508;-60
2021/08/04 12:05:32;;;;;;;2.15;1.10;;;23.80;61.00;;;;;;10004912;28;20087;-60
2021/08/04 12:10:23;;;;;;;2.50;1.45;;;24.00;60.40;;;;;;9997403;28;20061;-59
2021/08/04 12:15:22;;;;;;;1.77;1.10;;;24.00;60.00;;;;;;9989262;28;20370;-59
2021/08/04 12:20:14;;;;;;;1.60;1.05;;;23.70;59.90;;;;;;9991179;28;20026;-58
2021/08/04 12:25:06;;;;;;;2.03;1.00;;;23.70;59.80;;;;;;9991032;28;20048;-59
2021/08/04 12:30:06;;;;;;;2.40;1.13;;;23.40;59.70;;;;;;9992706;28;20058;-59
2021/08/04 12:34:59;;;;;;;1.98;1.35;;;23.50;59.10;;;;;;9989004;28;20097;-60
2021/08/04 12:39:50;;;;;;;5.00;1.67;;;23.30;59.40;;;;;;10000856;28;20040;-59
2021/08/04 12:44:41;;;;;;;1.58;1.13;;;23.30;59.40;;;;;;10009093;28;20040;-62
2021/08/04 12:49:32;;;;;;;3.30;1.70;;;23.30;59.20;;;;;;9995470;28;20497;-61
2021/08/04 12:54:28;;;;;;;2.90;1.50;;;23.20;59.60;;;;;;9999473;28;20504;-60
2021/08/04 12:59:22;;;;;;;2.70;1.55;;;23.20;59.80;;;;;;9991378;28;20038;-61
2021/08/04 13:04:25;;;;;;;1.87;1.10;;;23.10;59.90;;;;;;9988443;28;20117;-61
2021/08/04 13:09:20;;;;;;;1.98;1.13;;;23.10;60.00;;;;;;10009025;28;20397;-60
2021/08/04 13:14:11;;;;;;;1.38;0.90;;;23.10;59.80;;;;;;10002217;28;20337;-60
2021/08/04 13:19:03;;;;;;;1.02;0.90;;;22.80;59.90;;;;;;9996056;28;20034;-60
2021/08/04 13:23:54;;;;;;;1.75;1.00;;;22.70;59.90;;;;;;9991538;28;20173;-60
2021/08/04 13:28:47;;;;;;;4.45;1.40;;;23.00;59.70;;;;;;9983942;28;20109;-61
2021/08/04 13:33:41;;;;;;;2.17;0.95;;;23.20;59.40;;;;;;9988525;28;20759;-61
2021/08/04 13:38:31;;;;;;;1.55;1.08;;;23.50;58.70;;;;;;9996074;28;20037;-61
2021/08/04 13:43:23;;;;;;;2.78;1.13;;;23.40;58.40;;;;;;9986591;28;20030;-63
2021/08/04 13:48:14;;;;;;;1.25;0.98;;;23.20;58.30;;;;;;9989495;28;20559;-62
2021/08/04 13:53:04;;;;;;;2.50;1.05;;;23.10;58.80;;;;;;9991112;28;20212;-61
2021/08/04 13:57:55;;;;;;;1.23;0.90;;;23.10;58.60;;;;;;9985192;28;20026;-63
2021/08/04 14:02:47;;;;;;;1.88;1.33;;;23.30;58.00;;;;;;9989808;28;20038;-64
2021/08/04 14:07:38;;;;;;;2.47;1.33;;;23.40;57.90;;;;;;9990132;28;20156;-60
2021/08/04 14:12:29;;;;;;;2.63;1.80;;;23.60;57.50;;;;;;9989893;28;20029;-60
2021/08/04 14:17:19;;;;;;;1.90;1.23;;;23.90;57.20;;;;;;10006368;28;20038;-60
2021/08/04 14:22:11;;;;;;;1.42;0.93;;;23.80;56.70;;;;;;10006460;28;20044;-61
2021/08/04 14:27:02;;;;;;;1.50;1.05;;;23.60;56.90;;;;;;9990767;28;20046;-62
2021/08/04 14:31:53;;;;;;;1.48;1.05;;;24.00;56.30;;;;;;9984008;28;20033;-62
2021/08/04 14:36:43;;;;;;;1.20;1.10;;;23.90;56.00;;;;;;9996283;28;20035;-62
2021/08/04 14:41:34;;;;;;;1.85;1.05;;;23.80;55.70;;;;;;9982090;28;20044;-61
2021/08/04 14:46:26;;;;;;;3.42;1.13;;;23.60;55.90;;;;;;9983575;28;20042;-62
2021/08/04 14:51:16;;;;;;;2.47;1.00;;;23.50;56.20;;;;;;9988770;28;20567;-59
2021/08/04 14:56:08;;;;;;;0.88;0.80;;;23.20;56.10;;;;;;9987131;28;20030;-62
2021/08/04 15:01:00;;;;;;;1.08;0.70;;;22.90;56.20;;;;;;9981578;28;20026;-60
2021/08/04 15:05:50;;;;;;;2.22;0.90;;;22.90;56.10;;;;;;9986721;28;20259;-60
2021/08/04 15:10:41;;;;;;;1.52;0.95;;;23.00;56.30;;;;;;9987626;28;20033;-62
2021/08/04 15:15:32;;;;;;;1.20;0.90;;;23.00;55.60;;;;;;9995821;28;20108;-61
2021/08/04 15:20:22;;;;;;;1.50;0.98;;;23.00;55.30;;;;;;9999054;28;20396;-60
2021/08/04 15:25:13;;;;;;;3.72;1.60;;;22.90;55.40;;;;;;9990957;28;20094;-59
2021/08/04 15:30:05;;;;;;;4.28;2.88;;;23.00;55.30;;;;;;9992087;28;20030;-61
2021/08/04 15:34:55;;;;;;;1.63;1.13;;;22.80;55.60;;;;;;9997409;28;20100;-61
2021/08/04 15:39:46;;;;;;;1.23;0.95;;;22.70;55.50;;;;;;9995396;28;20573;-58
2021/08/04 15:44:37;;;;;;;2.15;0.98;;;22.60;55.70;;;;;;9992720;28;20549;-59
2021/08/04 15:49:29;;;;;;;2.35;1.60;;;22.50;55.90;;;;;;9989187;28;20025;-58
2021/08/04 15:54:20;;;;;;;1.60;0.88;;;22.40;56.10;;;;;;9992066;28;20030;-57
2021/08/04 15:59:11;;;;;;;1.50;0.98;;;22.40;56.40;;;;;;9986783;28;20030;-59
2021/08/04 16:04:02;;;;;;;1.30;1.00;;;22.40;56.70;;;;;;9989379;28;20556;-60
2021/08/04 16:08:53;;;;;;;1.23;0.85;;;22.40;56.80;;;;;;9987198;28;20109;-60
2021/08/04 16:13:44;;;;;;;1.58;1.00;;;22.30;57.10;;;;;;9999154;28;20374;-61
2021/08/04 16:18:35;;;;;;;2.20;1.30;;;22.30;57.00;;;;;;10000132;28;20500;-63
2021/08/04 16:23:26;;;;;;;1.75;1.08;;;22.30;57.20;;;;;;9998350;28;20041;-64
2021/08/04 16:28:21;;;;;;;1.10;0.77;;;22.20;57.50;;;;;;9995978;28;20041;-61
2021/08/04 16:33:11;;;;;;;3.70;1.00;;;22.20;57.90;;;;;;9993278;28;20492;-60
2021/08/04 16:38:02;;;;;;;1.13;0.90;;;22.10;58.20;;;;;;10004499;28;20277;-64
2021/08/04 16:42:54;;;;;;;3.92;1.10;;;22.20;58.10;;;;;;9998082;28;20575;-60
2021/08/04 16:47:45;;;;;;;1.65;1.05;;;22.00;58.50;;;;;;10002415;28;20042;-64
2021/08/04 16:52:36;;;;;;;1.48;1.02;;;22.10;58.50;;;;;;10000329;28;20077;-60
2021/08/04 16:57:28;;;;;;;1.77;1.10;;;22.10;58.50;;;;;;10000995;28;20030;-61
2021/08/04 17:02:19;;;;;;;1.58;0.85;;;22.00;58.60;;;;;;9994642;28;20026;-61
2021/08/04 17:07:09;;;;;;;1.85;1.08;;;21.90;59.00;;;;;;9996643;28;20421;-61
2021/08/04 17:12:00;;;;;;;1.33;0.80;;;21.80;59.40;;;;;;9992517;28;20029;-60
2021/08/04 17:16:51;;;;;;;2.53;1.70;;;21.60;59.80;;;;;;9991586;28;20018;-59
2021/08/04 17:21:41;;;;;;;1.70;1.10;;;21.70;59.80;;;;;;9996878;28;20022;-60
2021/08/04 17:26:32;;;;;;;2.17;1.30;;;21.70;59.80;;;;;;10000459;28;20202;-64
2021/08/04 17:31:25;;;;;;;2.03;1.27;;;21.50;60.20;;;;;;9998771;28;20030;-56
2021/08/04 17:36:16;;;;;;;2.33;1.33;;;21.40;60.70;;;;;;9992929;28;20030;-58
2021/08/04 17:41:06;;;;;;;2.00;1.33;;;21.30;60.80;;;;;;9996203;28;20033;-59
2021/08/04 17:45:57;;;;;;;1.95;1.40;;;21.40;61.00;;;;;;9992953;28;20400;-59
2021/08/04 17:50:48;;;;;;;3.13;1.52;;;21.30;61.10;;;;;;9995074;28;20271;-61
2021/08/04 17:55:39;;;;;;;2.55;1.30;;;21.30;61.30;;;;;;10000271;28;20109;-57
2021/08/04 18:00:29;;;;;;;2.45;1.33;;;21.20;62.10;;;;;;9994094;28;20104;-59
2021/08/04 18:05:20;;;;;;;2.60;1.42;;;21.10;62.10;;;;;;10001016;28;20042;-58
2021/08/04 18:10:11;;;;;;;2.60;1.30;;;21.10;62.30;;;;;;9993809;28;20038;-60
2021/08/04 18:15:04;;;;;;;3.65;1.42;;;21.10;62.80;;;;;;9997438;28;20041;-61
2021/08/04 18:19:54;;;;;;;4.93;2.38;;;21.00;63.30;;;;;;9995278;28;20487;-59
2021/08/04 18:24:45;;;;;;;3.13;1.05;;;20.90;63.80;;;;;;10000793;28;20369;-62
2021/08/04 18:29:35;;;;;;;2.33;1.60;;;20.80;64.10;;;;;;9998898;28;20385;-62
2021/08/04 18:34:26;;;;;;;1.60;1.20;;;20.70;64.70;;;;;;10001466;28;20716;-58
2021/08/04 18:39:17;;;;;;;1.70;1.58;;;20.60;65.00;;;;;;9990706;28;20384;-62
2021/08/04 18:44:08;;;;;;;1.92;1.02;;;20.50;65.10;;;;;;9991869;28;20041;-60
2021/08/04 18:48:59;;;;;;;2.78;1.55;;;20.40;65.50;;;;;;10005578;28;20046;-59
2021/08/04 18:53:49;;;;;;;6.30;1.17;;;20.40;65.80;;;;;;10001856;28;20337;-59
2021/08/04 18:58:40;;;;;;;1.95;1.17;;;20.40;65.70;;;;;;9998030;28;20033;-60
2021/08/04 19:03:31;;;;;;;3.38;1.40;;;20.50;65.80;;;;;;10001321;28;20032;-61
2021/08/04 19:08:21;;;;;;;2.47;1.33;;;20.30;66.20;;;;;;10004234;28;20488;-59
2021/08/04 19:13:12;;;;;;;4.57;2.05;;;20.30;66.50;;;;;;9998753;28;20048;-60
2021/08/04 19:18:03;;;;;;;2.60;1.70;;;20.40;66.60;;;;;;10011409;28;20138;-60
2021/08/04 19:22:58;;;;;;;2.65;1.75;;;20.40;67.00;;;;;;10002040;28;20038;-54
2021/08/04 19:27:49;;;;;;;1.63;1.17;;;20.40;67.40;;;;;;10001871;28;20117;-55
2021/08/04 19:32:40;;;;;;;3.10;1.75;;;20.30;67.90;;;;;;10007473;28;20045;-56
2021/08/04 19:37:31;;;;;;;2.92;1.92;;;20.30;68.20;;;;;;10002404;28;20034;-55
2021/08/04 19:42:22;;;;;;;2.15;1.77;;;20.20;68.70;;;;;;10008035;28;20033;-59
2021/08/04 19:47:12;;;;;;;5.35;2.50;;;20.20;69.10;;;;;;9999382;28;20073;-59
2021/08/04 19:52:03;;;;;;;5.68;2.35;;;20.20;69.50;;;;;;10001719;28;20025;-59
2021/08/04 19:56:54;;;;;;;2.55;1.60;;;20.10;69.90;;;;;;10004133;28;20117;-59
2021/08/04 20:01:45;;;;;;;2.70;1.45;;;19.90;70.60;;;;;;9992365;28;20022;-59
2021/08/04 20:06:36;;;;;;;3.10;1.95;;;19.90;70.70;;;;;;9998988;28;20092;-59
2021/08/04 20:11:27;;;;;;;3.28;1.70;;;19.90;71.00;;;;;;9999163;28;20538;-57
2021/08/04 20:16:17;;;;;;;4.80;1.40;;;19.80;71.30;;;;;;10006875;28;20591;-58
2021/08/04 20:21:09;;;;;;;4.70;1.92;;;19.90;71.50;;;;;;10002527;28;20471;-58
2021/08/04 20:25:59;;;;;;;2.70;1.63;;;19.90;71.70;;;;;;9998138;28;20050;-59
2021/08/04 20:30:50;;;;;;;3.10;2.00;;;19.90;71.70;;;;;;10001169;28;20523;-59
2021/08/04 20:35:41;;;;;;;2.22;1.70;;;19.90;71.70;;;;;;9993683;28;20520;-57
2021/08/04 20:40:32;;;;;;;3.97;1.67;;;19.80;71.90;;;;;;10003414;28;20077;-58
2021/08/04 20:45:22;;;;;;;2.78;2.03;;;19.80;72.10;;;;;;9993691;28;20049;-56
2021/08/04 20:50:14;;;;;;;2.63;1.65;;;19.80;72.30;;;;;;10000686;28;20552;-58
2021/08/04 20:55:04;;;;;;;3.28;2.05;;;19.80;72.40;;;;;;9995026;28;20563;-56
2021/08/04 20:59:55;;;;;;;4.40;1.85;;;19.70;72.80;;;;;;10005650;28;20029;-53
2021/08/04 21:04:46;;;;;;;3.60;2.05;;;19.80;73.00;;;;;;9999875;28;20238;-60
2021/08/04 21:09:37;;;;;;;3.70;1.73;;;19.70;73.00;;;;;;10017872;28;20032;-59
2021/08/04 21:14:27;;;;;;;2.58;1.67;;;19.70;73.10;;;;;;10025401;28;20053;-59
2021/08/04 21:19:18;;;;;;;3.60;1.52;;;19.80;73.30;;;;;;10009057;28;20198;-62
2021/08/04 21:24:09;;;;;;;2.90;1.65;;;19.70;73.50;;;;;;10001479;28;20045;-60
2021/08/04 21:28:59;;;;;;;3.10;2.17;;;19.70;73.80;;;;;;10002672;28;20022;-59
2021/08/04 21:33:50;;;;;;;3.10;1.70;;;19.70;73.90;;;;;;9996693;28;20088;-60
2021/08/04 21:38:40;;;;;;;3.10;2.00;;;19.60;74.10;;;;;;9995363;28;20492;-61
2021/08/04 21:43:31;;;;;;;2.92;1.98;;;19.60;74.50;;;;;;9997183;28;20022;-60
2021/08/04 21:48:22;;;;;;;2.70;2.08;;;19.50;74.60;;;;;;9994810;28;20211;-59
2021/08/04 21:53:12;;;;;;;3.22;1.80;;;19.50;74.70;;;;;;10006148;28;20480;-62
2021/08/04 21:58:03;;;;;;;2.85;1.70;;;19.60;74.70;;;;;;9999589;28;20029;-60
2021/08/04 22:02:59;;;;;;;2.90;1.75;;;19.70;74.90;;;;;;9998426;28;20256;-60
2021/08/04 22:07:50;;;;;;;3.15;2.22;;;19.60;75.10;;;;;;9997810;28;20612;-59
2021/08/04 22:12:42;;;;;;;2.03;1.30;;;19.60;75.40;;;;;;10002373;28;20041;-60
2021/08/04 22:17:33;;;;;;;2.72;1.60;;;19.50;75.50;;;;;;10000365;28;20096;-58
2021/08/04 22:22:24;;;;;;;3.33;1.52;;;19.50;75.80;;;;;;9994207;28;20381;-58
2021/08/04 22:27:15;;;;;;;4.38;1.60;;;19.50;75.60;;;;;;9994390;28;20035;-59
2021/08/04 22:32:06;;;;;;;2.35;1.20;;;19.40;75.70;;;;;;10004698;28;20030;-60
2021/08/04 22:36:56;;;;;;;2.78;1.15;;;19.30;75.80;;;;;;9999276;28;20484;-59
2021/08/04 22:41:47;;;;;;;2.15;1.45;;;19.30;75.80;;;;;;9996807;28;20038;-60
2021/08/04 22:46:38;;;;;;;1.98;1.38;;;19.30;75.60;;;;;;9998440;28;20042;-59
2021/08/04 22:51:28;;;;;;;3.72;1.98;;;19.20;75.60;;;;;;9997360;28;20029;-59
2021/08/04 22:56:19;;;;;;;2.15;1.50;;;19.30;75.40;;;;;;10006960;28;20034;-60
2021/08/04 23:01:10;;;;;;;2.58;1.50;;;19.20;75.60;;;;;;9999240;28;20068;-59
2021/08/04 23:06:00;;;;;;;1.67;1.20;;;19.20;75.50;;;;;;10002540;28;20400;-60
2021/08/04 23:10:51;;;;;;;2.28;1.17;;;19.10;75.70;;;;;;9999831;28;20239;-60
2021/08/04 23:15:41;;;;;;;3.20;1.42;;;19.10;75.80;;;;;;9993533;28;20171;-59
2021/08/04 23:20:32;;;;;;;2.30;1.55;;;19.10;75.80;;;;;;9995497;28;20125;-59
2021/08/04 23:25:22;;;;;;;3.92;1.30;;;19.20;75.70;;;;;;9992801;28;20271;-58
2021/08/04 23:30:16;;;;;;;1.65;1.25;;;19.00;75.90;;;;;;10001145;28;20122;-60
2021/08/04 23:35:07;;;;;;;2.10;1.20;;;18.90;76.10;;;;;;9996050;28;20029;-58
2021/08/04 23:39:58;;;;;;;3.30;1.40;;;18.90;76.40;;;;;;10003709;28;20228;-59
2021/08/04 23:44:48;;;;;;;2.15;1.40;;;18.80;76.40;;;;;;10009689;28;20408;-60
2021/08/04 23:49:39;;;;;;;2.50;1.42;;;18.80;76.70;;;;;;10006824;28;20687;-60
2021/08/04 23:54:31;;;;;;;3.22;2.30;;;18.80;76.90;;;;;;10010932;28;20030;-59
2021/08/04 23:59:22;;;;;;;2.92;1.95;;;18.70;77.40;;;;;;9992718;28;20080;-58
